Time;durP1;ratioP1;P1;durP2;ratioP2;P2;SDS_P1;SDS_P2;PMS_P1;PMS_P2;Temp;Humidity;BMP_temperature;BMP_pressure;BME280_temperature;BME280_humidity;BME280_pressure;Samples;Min_cycle;Max_cycle;Signal;HPM_P1;HPM_P2
2022/07/03 00:01:54;;;;;;;2.80;2.20;;;16.00;46.30;;;;;;5004938;28;20036;-89
2022/07/03 00:04:22;;;;;;;4.90;2.60;;;15.90;60.80;;;;;;5037129;28;20102;-88
2022/07/03 00:06:48;;;;;;;12.20;3.10;;;16.00;66.30;;;;;;5002521;28;20041;-88
2022/07/03 00:09:14;;;;;;;10.02;2.65;;;16.00;74.20;;;;;;5028488;28;20098;-90
2022/07/03 00:11:40;;;;;;;4.68;2.58;;;15.90;84.10;;;;;;5033703;28;20041;-89
2022/07/03 00:14:06;;;;;;;5.30;2.70;;;15.90;93.00;;;;;;5017457;28;20046;-88
2022/07/03 00:16:32;;;;;;;5.93;2.90;;;15.90;95.50;;;;;;5014409;28;20122;-89
2022/07/03 00:18:57;;;;;;;4.05;2.38;;;15.90;97.10;;;;;;5035476;28;20040;-89
2022/07/03 00:22:05;;;;;;;3.70;2.60;;;15.80;98.30;;;;;;5039879;28;20055;-87
2022/07/03 00:24:50;;;;;;;5.90;2.75;;;15.70;95.00;;;;;;5034636;28;20057;-89
2022/07/03 00:27:21;;;;;;;3.45;2.83;;;15.70;97.40;;;;;;5023781;28;20412;-90
2022/07/03 00:29:49;;;;;;;3.92;2.65;;;15.80;99.90;;;;;;5035940;28;20119;-88
2022/07/03 00:32:21;;;;;;;5.45;3.05;;;15.80;99.00;;;;;;5038777;28;20048;-88
2022/07/03 00:34:49;;;;;;;4.72;3.00;;;15.80;97.70;;;;;;5036176;28;20376;-88
2022/07/03 00:37:15;;;;;;;4.38;2.92;;;15.80;99.90;;;;;;5055065;28;20177;-88
2022/07/03 00:39:42;;;;;;;3.50;2.75;;;15.70;99.90;;;;;;5038658;28;20068;-89
2022/07/03 00:42:10;;;;;;;4.35;2.83;;;15.70;99.90;;;;;;5050708;28;20037;-87
2022/07/03 00:44:53;;;;;;;3.17;2.70;;;15.60;99.90;;;;;;5011814;28;20386;-87
2022/07/03 00:47:21;;;;;;;6.63;2.90;;;15.70;99.90;;;;;;5041493;28;20041;-88
2022/07/03 00:49:49;;;;;;;4.05;2.50;;;15.50;99.90;;;;;;5040500;28;20041;-87
2022/07/03 00:52:16;;;;;;;4.53;3.00;;;15.60;99.90;;;;;;5066342;28;20056;-87
2022/07/03 00:54:50;;;;;;;3.28;2.90;;;15.50;99.90;;;;;;5007220;28;20048;-87
2022/07/03 00:57:16;;;;;;;5.45;2.55;;;15.50;99.90;;;;;;5053013;28;20183;-88
2022/07/03 00:59:43;;;;;;;3.00;2.70;;;15.40;99.90;;;;;;5032228;28;20110;-87
2022/07/03 01:02:34;;;;;;;7.88;2.90;;;15.40;99.90;;;;;;5026497;28;20098;-86
2022/07/03 01:05:15;;;;;;;4.07;2.80;;;15.30;99.90;;;;;;5043924;28;20052;-87
2022/07/03 01:08:08;;;;;;;5.28;3.20;;;15.30;99.90;;;;;;5056537;28;20496;-87
2022/07/03 01:10:37;;;;;;;4.15;3.38;;;15.30;99.90;;;;;;5035122;28;20053;-87
2022/07/03 01:13:12;;;;;;;6.38;3.42;;;15.30;99.90;;;;;;5040965;28;20477;-87
2022/07/03 01:16:00;;;;;;;4.85;3.45;;;15.30;99.90;;;;;;5040093;28;20041;-87
2022/07/03 01:18:45;;;;;;;4.65;3.10;;;15.20;99.90;;;;;;5043075;28;20077;-87
2022/07/03 01:21:38;;;;;;;5.25;3.97;;;15.10;99.90;;;;;;5041483;28;20098;-87
2022/07/03 01:24:28;;;;;;;5.82;3.60;;;15.00;99.90;;;;;;5045532;28;20110;-86
2022/07/03 01:26:59;;;;;;;3.72;3.42;;;15.00;99.90;;;;;;5057063;28;20032;-86
2022/07/03 01:29:51;;;;;;;8.98;4.05;;;14.90;99.90;;;;;;5046863;28;20084;-88
2022/07/03 01:32:18;;;;;;;7.90;4.00;;;14.80;99.90;;;;;;5049665;28;20047;-87
2022/07/03 01:34:50;;;;;;;4.22;3.83;;;14.70;99.90;;;;;;5053399;28;20052;-88
2022/07/03 01:37:19;;;;;;;6.30;4.10;;;14.70;99.90;;;;;;5051872;28;20048;-88
2022/07/03 01:39:48;;;;;;;6.32;4.05;;;14.60;99.90;;;;;;5039198;28;20098;-88
2022/07/03 01:42:15;;;;;;;4.07;3.75;;;14.50;99.90;;;;;;5037450;28;20044;-88
2022/07/03 01:44:42;;;;;;;7.70;5.03;;;14.40;99.90;;;;;;5036352;28;20040;-88
2022/07/03 01:47:08;;;;;;;10.10;4.28;;;14.40;99.90;;;;;;5037439;28;20082;-87
2022/07/03 01:49:35;;;;;;;5.28;4.10;;;14.30;99.90;;;;;;5057506;28;20101;-87
2022/07/03 01:52:02;;;;;;;7.00;3.95;;;14.20;99.90;;;;;;5038989;28;20539;-89
2022/07/03 01:54:29;;;;;;;8.10;4.50;;;14.20;99.90;;;;;;4997062;28;20394;-87
2022/07/03 01:56:55;;;;;;;5.68;3.85;;;14.10;99.90;;;;;;5053583;28;20040;-88
2022/07/03 01:59:21;;;;;;;5.78;4.05;;;14.00;99.90;;;;;;5033973;28;20032;-88
2022/07/03 02:01:53;;;;;;;6.22;4.32;;;14.10;99.90;;;;;;5035324;28;20052;-87
2022/07/03 02:04:39;;;;;;;3.60;3.20;;;14.00;99.90;;;;;;5031941;28;20363;-87
2022/07/03 02:07:10;;;;;;;5.25;3.45;;;13.90;99.90;;;;;;5040072;28;20043;-87
2022/07/03 02:09:49;;;;;;;5.47;3.85;;;13.90;99.90;;;;;;5025001;28;20048;-88
2022/07/03 02:12:18;;;;;;;5.13;3.88;;;13.90;99.90;;;;;;5021380;28;20047;-88
2022/07/03 02:14:55;;;;;;;4.97;3.88;;;13.80;99.90;;;;;;5027087;28;20048;-87
2022/07/03 02:17:21;;;;;;;6.10;4.47;;;13.70;99.90;;;;;;5035619;28;20059;-87
2022/07/03 02:19:55;;;;;;;4.78;4.00;;;13.70;99.90;;;;;;5039917;28;20053;-88
2022/07/03 02:22:27;;;;;;;4.30;3.60;;;13.70;99.90;;;;;;5025919;28;20486;-88
2022/07/03 02:25:04;;;;;;;5.43;3.83;;;13.60;99.90;;;;;;5035547;28;20390;-87
2022/07/03 02:27:41;;;;;;;7.70;4.65;;;13.60;99.90;;;;;;5033832;28;20043;-87
2022/07/03 02:30:07;;;;;;;5.85;3.97;;;13.40;99.90;;;;;;5047231;28;20392;-87
2022/07/03 02:32:40;;;;;;;4.43;4.03;;;13.40;99.90;;;;;;5022494;28;20043;-88
2022/07/03 02:35:08;;;;;;;4.97;3.58;;;13.40;99.90;;;;;;5026839;28;20079;-87
2022/07/03 02:37:55;;;;;;;4.82;4.40;;;13.40;99.90;;;;;;5023387;28;20142;-87
2022/07/03 02:40:44;;;;;;;6.05;4.90;;;13.30;99.90;;;;;;5049170;28;20094;-88
2022/07/03 02:43:54;;;;;;;6.05;4.88;;;13.40;99.90;;;;;;5050275;28;20040;-88
2022/07/03 02:49:20;;;;;;;5.95;4.95;;;13.40;99.90;;;;;;5055359;28;20086;-87
2022/07/03 02:51:58;;;;;;;6.22;5.28;;;13.30;99.90;;;;;;5036210;28;20123;-86
2022/07/03 02:54:24;;;;;;;6.60;5.43;;;13.30;99.90;;;;;;5050512;28;20055;-87
2022/07/03 02:56:56;;;;;;;6.70;5.13;;;13.30;99.90;;;;;;5047164;28;20076;-87
2022/07/03 02:59:30;;;;;;;7.63;5.93;;;13.30;99.90;;;;;;5051526;28;20461;-87
2022/07/03 03:02:05;;;;;;;6.50;5.32;;;13.20;99.90;;;;;;5031898;28;20592;-87
2022/07/03 03:04:32;;;;;;;6.60;5.43;;;13.20;99.90;;;;;;5052040;28;20285;-87
2022/07/03 03:07:12;;;;;;;5.80;5.20;;;13.20;99.90;;;;;;5046666;28;20555;-86
2022/07/03 03:09:44;;;;;;;5.70;5.18;;;13.20;99.90;;;;;;5045202;28;20040;-87
2022/07/03 03:12:11;;;;;;;8.75;6.30;;;13.20;99.90;;;;;;5047045;28;20033;-86
2022/07/03 03:14:47;;;;;;;7.30;6.60;;;13.20;99.90;;;;;;5021860;28;20048;-86
2022/07/03 03:17:18;;;;;;;;;;;13.20;99.90;;;;;;5044612;28;20577;-86
2022/07/03 03:19:51;;;;;;;11.55;7.07;;;13.30;99.90;;;;;;5055384;28;20005;-86
2022/07/03 03:22:51;;;;;;;8.10;7.00;;;13.20;99.90;;;;;;5035601;28;20850;-87
2022/07/03 03:25:17;;;;;;;7.13;6.50;;;13.30;99.90;;;;;;5010599;28;20063;-87
2022/07/03 03:27:43;;;;;;;9.13;7.20;;;13.30;99.90;;;;;;5044501;28;20365;-87
2022/07/03 03:30:09;;;;;;;7.50;6.40;;;13.50;99.90;;;;;;5037436;28;20052;-87
2022/07/03 03:32:36;;;;;;;8.77;6.60;;;13.40;99.90;;;;;;5020790;28;20048;-87
2022/07/03 03:35:02;;;;;;;9.05;6.68;;;13.50;99.90;;;;;;5022277;28;20041;-85
2022/07/03 03:37:28;;;;;;;10.73;7.60;;;13.50;99.90;;;;;;5021939;28;20129;-87
2022/07/03 03:39:54;;;;;;;8.77;7.07;;;13.60;99.90;;;;;;5037624;28;20067;-88
2022/07/03 03:42:20;;;;;;;11.10;6.50;;;13.70;99.90;;;;;;5014839;28;20159;-88
2022/07/03 03:44:45;;;;;;;9.65;7.25;;;13.80;99.90;;;;;;5027563;28;20049;-88
2022/07/03 03:47:11;;;;;;;6.43;5.82;;;13.80;99.90;;;;;;5004132;28;20381;-90
2022/07/03 03:49:37;;;;;;;6.93;6.32;;;13.90;99.90;;;;;;5009734;28;20049;-88
2022/07/03 03:52:03;;;;;;;6.32;5.72;;;13.90;99.90;;;;;;5009880;28;20052;-87
2022/07/03 03:54:28;;;;;;;11.35;7.10;;;14.00;99.90;;;;;;5001948;28;20044;-89
2022/07/03 03:56:54;;;;;;;9.75;6.82;;;14.00;99.90;;;;;;5031610;28;20093;-89
2022/07/03 03:59:20;;;;;;;7.57;5.95;;;14.00;99.90;;;;;;5019561;28;20037;-88
2022/07/03 04:01:47;;;;;;;6.78;5.90;;;14.00;99.90;;;;;;5038042;28;20071;-88
2022/07/03 04:04:17;;;;;;;7.05;4.93;;;14.10;99.90;;;;;;5010201;28;20542;-89
2022/07/03 04:06:44;;;;;;;6.90;5.55;;;14.10;99.90;;;;;;5035336;28;20504;-88
2022/07/03 04:09:09;;;;;;;6.28;5.68;;;14.10;99.90;;;;;;5038330;28;20048;-90
2022/07/03 04:11:35;;;;;;;7.30;5.82;;;14.20;99.90;;;;;;5021610;28;20055;-89
2022/07/03 04:14:01;;;;;;;6.45;5.85;;;14.10;99.90;;;;;;5021325;28;20382;-87
2022/07/03 04:16:28;;;;;;;6.97;5.70;;;14.10;99.90;;;;;;5020636;28;20040;-87
2022/07/03 04:18:53;;;;;;;7.45;5.65;;;14.00;99.90;;;;;;5026981;28;20098;-88
2022/07/03 04:21:19;;;;;;;7.80;6.50;;;14.00;99.90;;;;;;5037117;28;20550;-88
2022/07/03 04:23:45;;;;;;;9.13;6.43;;;13.90;99.90;;;;;;5020193;28;20036;-87
2022/07/03 04:26:14;;;;;;;7.38;6.47;;;13.90;99.90;;;;;;5025187;28;20048;-88
2022/07/03 04:28:44;;;;;;;8.02;6.40;;;14.00;99.90;;;;;;5047747;28;20036;-87
2022/07/03 04:31:13;;;;;;;7.22;6.53;;;13.90;99.90;;;;;;5020308;28;20419;-88
2022/07/03 04:33:44;;;;;;;8.43;6.35;;;13.90;99.90;;;;;;5023720;28;20045;-87
2022/07/03 04:36:20;;;;;;;10.73;7.22;;;13.90;99.90;;;;;;5019112;28;20044;-87
2022/07/03 04:38:51;;;;;;;8.63;6.85;;;14.00;99.90;;;;;;5030737;28;20558;-87
2022/07/03 04:41:17;;;;;;;7.43;6.63;;;13.90;99.90;;;;;;5037637;28;20040;-88
2022/07/03 04:43:54;;;;;;;8.35;7.55;;;13.90;99.90;;;;;;5053238;28;20037;-88
2022/07/03 04:46:25;;;;;;;9.18;6.85;;;13.90;99.90;;;;;;5034086;28;20052;-88
2022/07/03 04:49:03;;;;;;;10.32;6.85;;;13.90;99.90;;;;;;5036902;28;21230;-87
2022/07/03 04:51:36;;;;;;;7.78;6.78;;;13.90;99.90;;;;;;5036000;28;20044;-87
2022/07/03 04:54:05;;;;;;;7.57;6.28;;;13.90;99.90;;;;;;5027004;28;20489;-87
2022/07/03 04:56:45;;;;;;;7.38;6.55;;;13.90;99.90;;;;;;5030522;28;20488;-86
2022/07/03 04:59:13;;;;;;;10.07;6.53;;;13.90;99.90;;;;;;5033779;28;20767;-88
2022/07/03 05:01:49;;;;;;;10.23;7.57;;;13.90;99.90;;;;;;5031435;28;20489;-87
2022/07/03 05:04:21;;;;;;;7.63;6.93;;;13.90;99.90;;;;;;5030150;28;20036;-86
2022/07/03 05:06:56;;;;;;;8.57;7.00;;;13.90;99.90;;;;;;5052415;28;20045;-87
2022/07/03 05:09:25;;;;;;;11.43;6.90;;;13.90;99.90;;;;;;5037032;28;20044;-87
2022/07/03 05:11:53;;;;;;;8.50;7.70;;;13.90;99.90;;;;;;5037168;28;20416;-88
2022/07/03 05:14:24;;;;;;;8.02;7.25;;;13.90;99.90;;;;;;5017691;28;20045;-89
2022/07/03 05:16:54;;;;;;;11.02;7.00;;;13.90;99.90;;;;;;5032948;28;20491;-87
2022/07/03 05:19:22;;;;;;;11.57;7.32;;;14.00;99.90;;;;;;5020284;28;20071;-88
2022/07/03 05:21:48;;;;;;;9.68;7.15;;;14.00;99.90;;;;;;5024978;28;20040;-87
2022/07/03 05:24:16;;;;;;;8.27;7.30;;;14.00;99.90;;;;;;5031560;28;20037;-88
2022/07/03 05:26:41;;;;;;;8.57;7.30;;;14.00;99.90;;;;;;5051678;28;20043;-88
2022/07/03 05:29:07;;;;;;;8.43;7.63;;;14.10;99.90;;;;;;5039953;28;20534;-87
2022/07/03 05:31:36;;;;;;;7.55;6.78;;;14.10;99.90;;;;;;5022938;28;20143;-88
2022/07/03 05:34:04;;;;;;;9.73;7.47;;;14.20;99.90;;;;;;5002356;28;20037;-87
2022/07/03 05:36:30;;;;;;;7.47;6.57;;;14.30;99.90;;;;;;5036261;28;20040;-88
2022/07/03 05:41:47;;;;;;;9.18;6.88;;;14.50;99.90;;;;;;5032312;28;20040;-87
2022/07/03 05:44:13;;;;;;;6.68;5.90;;;14.70;99.90;;;;;;5025988;28;20100;-88
2022/07/03 05:46:39;;;;;;;7.45;5.50;;;14.80;99.90;;;;;;5004096;28;20067;-88
2022/07/03 05:49:05;;;;;;;5.15;4.60;;;14.90;99.90;;;;;;5026244;28;20032;-87
2022/07/03 05:51:31;;;;;;;4.55;3.83;;;15.30;99.90;;;;;;5059254;28;20040;-89
2022/07/03 05:53:56;;;;;;;5.15;3.45;;;15.70;99.90;;;;;;5043923;28;20388;-87
2022/07/03 05:56:24;;;;;;;5.15;3.42;;;16.30;99.90;;;;;;5054210;28;20127;-88
2022/07/03 05:58:50;;;;;;;4.32;2.90;;;16.80;99.90;;;;;;5042899;28;20049;-89
2022/07/03 06:01:16;;;;;;;4.80;2.80;;;17.30;69.40;;;;;;5020537;28;20056;-88
2022/07/03 06:03:41;;;;;;;4.88;2.83;;;17.60;2.00;;;;;;5027641;28;20044;-88
2022/07/03 06:06:07;;;;;;;4.38;2.80;;;17.90;1.00;;;;;;5040522;28;20033;-87
2022/07/03 06:08:33;;;;;;;4.43;2.70;;;18.10;1.00;;;;;;5050799;28;20400;-88
2022/07/03 06:10:59;;;;;;;4.50;2.60;;;18.20;1.00;;;;;;5012625;28;20357;-89
2022/07/03 06:13:24;;;;;;;4.15;2.83;;;18.30;1.00;;;;;;5016404;28;20044;-87
2022/07/03 06:15:50;;;;;;;7.35;3.08;;;18.40;1.00;;;;;;5029719;28;20497;-87
2022/07/03 06:18:15;;;;;;;5.72;3.05;;;18.30;1.00;;;;;;5001651;28;20051;-87
2022/07/03 06:20:41;;;;;;;5.05;2.83;;;18.20;1.00;;;;;;5060636;28;20442;-89
2022/07/03 06:23:07;;;;;;;5.07;3.13;;;18.10;1.00;;;;;;5019760;28;20113;-89
2022/07/03 06:25:32;;;;;;;4.53;3.00;;;18.10;1.00;;;;;;5021311;28;20090;-87
2022/07/03 06:27:58;;;;;;;3.95;2.92;;;18.20;1.00;;;;;;5018989;28;20041;-87
2022/07/03 06:30:24;;;;;;;4.88;2.92;;;18.30;1.00;;;;;;5015460;28;20037;-88
2022/07/03 06:32:49;;;;;;;3.88;2.33;;;18.60;1.00;;;;;;4990797;28;20040;-86
2022/07/03 06:35:15;;;;;;;5.45;1.98;;;18.90;1.00;;;;;;5012668;28;20448;-87
2022/07/03 06:37:41;;;;;;;2.38;1.65;;;19.30;99.90;;;;;;5043017;28;20056;-86
2022/07/03 06:40:07;;;;;;;3.55;1.70;;;19.70;99.90;;;;;;5051348;28;20044;-87
2022/07/03 06:42:33;;;;;;;4.32;1.80;;;20.00;99.90;;;;;;4997639;28;20048;-88
2022/07/03 06:44:58;;;;;;;4.28;1.90;;;20.20;2.40;;;;;;5013464;28;20041;-86
2022/07/03 06:47:24;;;;;;;2.88;1.75;;;20.30;1.00;;;;;;5003361;28;20477;-87
2022/07/03 06:49:50;;;;;;;3.90;2.00;;;20.20;1.00;;;;;;5000055;28;20774;-84
2022/07/03 06:52:16;;;;;;;3.90;1.90;;;20.10;1.00;;;;;;5029579;28;20150;-83
2022/07/03 06:54:43;;;;;;;2.20;1.67;;;20.10;1.00;;;;;;5001985;28;20136;-86
2022/07/03 06:57:10;;;;;;;3.70;1.73;;;20.20;1.00;;;;;;5018983;28;20033;-85
2022/07/03 06:59:36;;;;;;;5.00;2.05;;;20.20;1.00;;;;;;5025593;28;20044;-85
2022/07/03 07:02:02;;;;;;;3.40;1.80;;;20.10;1.00;;;;;;5042982;28;20576;-88
2022/07/03 07:04:28;;;;;;;5.50;1.75;;;20.10;1.00;;;;;;5021577;28;20465;-84
2022/07/03 07:06:53;;;;;;;4.68;1.60;;;20.10;1.00;;;;;;5013846;28;20121;-84
2022/07/03 07:09:19;;;;;;;2.90;1.70;;;20.30;1.00;;;;;;5008997;28;20048;-87
2022/07/03 07:11:45;;;;;;;2.45;1.00;;;20.60;1.00;;;;;;5026468;28;20123;-84
2022/07/03 07:14:10;;;;;;;2.13;0.95;;;20.90;1.00;;;;;;5037642;28;20505;-84
2022/07/03 07:16:36;;;;;;;3.25;1.17;;;21.20;99.90;;;;;;5054000;28;20465;-85
2022/07/03 07:19:02;;;;;;;2.13;1.20;;;21.30;99.90;;;;;;5037208;28;20044;-84
2022/07/03 07:21:27;;;;;;;1.50;0.80;;;21.30;99.90;;;;;;5021173;28;20048;-84
2022/07/03 07:23:53;;;;;;;3.33;1.00;;;21.40;99.90;;;;;;5040491;28;20127;-83
2022/07/03 07:26:20;;;;;;;2.03;1.08;;;21.60;99.90;;;;;;5040393;28;20125;-84
2022/07/03 07:28:46;;;;;;;2.88;0.95;;;21.60;85.10;;;;;;5055979;28;20048;-84
2022/07/03 07:31:14;;;;;;;2.33;0.80;;;21.60;99.90;;;;;;5056303;28;20043;-84
2022/07/03 07:33:39;;;;;;;2.20;1.00;;;21.50;98.50;;;;;;5030403;28;20049;-89
2022/07/03 07:36:05;;;;;;;1.77;0.90;;;21.20;99.90;;;;;;5023790;28;20055;-85
2022/07/03 07:38:31;;;;;;;3.63;1.08;;;21.30;99.90;;;;;;5024010;28;20040;-84
2022/07/03 07:40:56;;;;;;;3.40;1.00;;;21.70;99.90;;;;;;5039911;28;20052;-84
2022/07/03 07:46:46;;;;;;;2.50;1.08;;;22.80;13.50;;;;;;5056358;28;20040;-84
2022/07/03 07:49:13;;;;;;;1.50;1.10;;;23.00;62.50;;;;;;5040025;28;20054;-84
2022/07/03 07:51:39;;;;;;;5.28;1.15;;;22.90;55.50;;;;;;5039502;28;20055;-85
2022/07/03 07:54:04;;;;;;;4.28;1.08;;;22.60;37.60;;;;;;5038032;28;20053;-85
2022/07/03 07:56:30;;;;;;;2.85;1.10;;;22.80;27.50;;;;;;5012278;28;20043;-85
2022/07/03 07:58:56;;;;;;;1.40;0.85;;;23.20;22.30;;;;;;5018654;28;20488;-84
2022/07/03 08:06:50;;;;;;;3.17;0.80;;;24.40;1.00;;;;;;5036372;28;20532;-85
2022/07/03 08:09:15;;;;;;;2.25;0.90;;;24.70;18.50;;;;;;5035812;28;20044;-85
2022/07/03 08:11:41;;;;;;;4.35;1.67;;;25.00;20.80;;;;;;5020038;28;20505;-85
2022/07/03 08:14:07;;;;;;;3.83;1.30;;;25.20;1.00;;;;;;5036317;28;20095;-84
2022/07/03 08:16:34;;;;;;;4.00;1.10;;;25.10;1.00;;;;;;5031640;28;20462;-84
2022/07/03 08:19:00;;;;;;;2.03;1.13;;;25.30;1.00;;;;;;5019834;28;20071;-83
2022/07/03 08:21:26;;;;;;;2.97;1.50;;;25.20;91.10;;;;;;5019824;28;20458;-84
2022/07/03 08:23:53;;;;;;;2.65;1.25;;;25.10;67.30;;;;;;5019562;28;20552;-84
2022/07/03 08:26:18;;;;;;;5.68;1.80;;;25.20;7.80;;;;;;5020606;28;20505;-83
2022/07/03 08:28:44;;;;;;;2.80;1.20;;;25.70;3.30;;;;;;5037327;28;20124;-84
2022/07/03 08:31:10;;;;;;;2.60;1.30;;;26.10;19.90;;;;;;5074013;28;20125;-83
2022/07/03 08:33:36;;;;;;;2.88;1.38;;;26.40;1.00;;;;;;5029410;28;20045;-84
2022/07/03 08:36:01;;;;;;;3.33;1.33;;;26.00;1.00;;;;;;5019543;28;20044;-87
2022/07/03 08:38:34;;;;;;;2.20;1.00;;;25.60;15.90;;;;;;5029377;28;20131;-84
2022/07/03 08:41:01;;;;;;;6.68;1.75;;;24.70;57.80;;;;;;5055475;28;20048;-84
2022/07/03 08:43:27;;;;;;;2.63;1.40;;;23.90;1.00;;;;;;5075607;28;20044;-84
2022/07/03 08:45:54;;;;;;;3.40;1.10;;;23.30;27.20;;;;;;5053729;28;20439;-83
2022/07/03 08:48:22;;;;;;;2.38;0.95;;;22.80;45.90;;;;;;5049425;28;20123;-84
2022/07/03 08:50:49;;;;;;;3.53;1.10;;;22.60;36.20;;;;;;5047967;28;20474;-86
2022/07/03 08:53:16;;;;;;;3.55;1.20;;;22.60;69.90;;;;;;5040477;28;20128;-83
2022/07/03 08:55:42;;;;;;;2.95;0.80;;;22.80;39.30;;;;;;5055209;28;20060;-86
2022/07/03 08:58:10;;;;;;;4.65;0.93;;;23.50;76.10;;;;;;5018199;28;20040;-84
2022/07/03 09:00:36;;;;;;;4.65;1.25;;;24.60;25.80;;;;;;5055315;28;20041;-85
2022/07/03 09:03:04;;;;;;;2.17;0.93;;;25.60;6.60;;;;;;5038391;28;20076;-84
2022/07/03 09:05:30;;;;;;;1.65;0.80;;;26.10;1.00;;;;;;5053030;28;20057;-84
2022/07/03 09:07:59;;;;;;;2.88;0.70;;;26.90;1.00;;;;;;5011524;28;20036;-86
2022/07/03 09:10:24;;;;;;;2.53;1.17;;;27.80;1.00;;;;;;5037704;28;20354;-84
2022/07/03 09:12:50;;;;;;;2.05;0.90;;;27.40;1.00;;;;;;5022936;28;20079;-82
2022/07/03 09:15:16;;;;;;;3.20;0.80;;;27.10;1.00;;;;;;5032467;28;20037;-84
2022/07/03 09:18:00;;;;;;;3.08;0.80;;;27.40;1.00;;;;;;5040545;28;20040;-85
2022/07/03 09:20:34;;;;;;;2.17;0.50;;;27.40;1.00;;;;;;5048923;28;20652;-88
2022/07/03 09:23:17;;;;;;;3.67;1.20;;;26.90;1.00;;;;;;5055052;28;20037;-87
2022/07/03 09:26:03;;;;;;;1.83;0.75;;;27.20;1.00;;;;;;5051148;28;20070;-86
2022/07/03 09:28:46;;;;;;;2.67;0.75;;;28.00;1.00;;;;;;5022433;28;20049;-86
2022/07/03 09:31:17;;;;;;;2.88;0.80;;;28.30;1.00;;;;;;5036535;28;20063;-86
2022/07/03 09:34:01;;;;;;;2.35;0.77;;;28.50;1.00;;;;;;5035103;28;20386;-86
2022/07/03 09:36:46;;;;;;;2.58;0.70;;;28.90;1.00;;;;;;5055007;28;20045;-85
2022/07/03 09:39:26;;;;;;;2.50;0.75;;;29.40;1.00;;;;;;5058833;28;20483;-86
2022/07/03 09:42:00;;;;;;;2.28;0.70;;;30.00;1.00;;;;;;5058682;28;20044;-86
2022/07/03 09:44:28;;;;;;;1.80;0.60;;;30.30;19.00;;;;;;5064990;28;20044;-86
2022/07/03 09:47:18;;;;;;;4.68;0.82;;;30.30;6.20;;;;;;5064714;28;20557;-88
2022/07/03 09:49:46;;;;;;;1.67;0.60;;;30.50;5.70;;;;;;5078868;28;20036;-86
2022/07/03 09:52:38;;;;;;;1.75;0.80;;;30.60;4.40;;;;;;5071889;28;20058;-86
2022/07/03 09:55:10;;;;;;;2.00;0.73;;;30.70;21.10;;;;;;5039036;28;20040;-85
2022/07/03 09:57:58;;;;;;;1.08;0.60;;;30.90;11.10;;;;;;5022515;28;20041;-86
2022/07/03 10:00:26;;;;;;;3.53;1.00;;;31.50;23.40;;;;;;5037834;28;20084;-86
2022/07/03 10:02:56;;;;;;;3.38;0.60;;;32.20;14.60;;;;;;5008861;28;20037;-86
2022/07/03 10:05:24;;;;;;;1.95;0.40;;;32.40;59.20;;;;;;5055327;28;20088;-86
2022/07/03 10:08:04;;;;;;;1.52;0.43;;;31.60;19.50;;;;;;5038037;28;20041;-85
2022/07/03 10:10:33;;;;;;;2.25;0.30;;;29.70;34.90;;;;;;5035252;28;20045;-86
2022/07/03 10:13:00;;;;;;;1.50;0.40;;;28.80;26.20;;;;;;5038976;28;20044;-88
2022/07/03 10:15:27;;;;;;;1.38;0.47;;;29.20;30.20;;;;;;5041748;28;20033;-87
2022/07/03 10:17:56;;;;;;;1.45;0.50;;;29.40;53.90;;;;;;5026273;28;20469;-86
2022/07/03 10:20:38;;;;;;;2.63;0.77;;;30.30;56.70;;;;;;5021008;28;20045;-87
2022/07/03 10:23:04;;;;;;;0.95;0.43;;;30.50;8.10;;;;;;5032266;28;20397;-85
2022/07/03 10:25:33;;;;;;;0.95;0.40;;;30.30;18.10;;;;;;5028766;28;20124;-86
2022/07/03 10:28:00;;;;;;;1.25;0.40;;;30.30;13.40;;;;;;5021044;28;20047;-85
2022/07/03 10:30:26;;;;;;;1.17;0.50;;;31.10;14.70;;;;;;5001414;28;20041;-86
2022/07/03 10:32:54;;;;;;;1.95;0.45;;;30.10;48.50;;;;;;4999031;28;20072;-87
2022/07/03 10:35:24;;;;;;;2.10;0.60;;;28.40;47.60;;;;;;5030190;28;20041;-86
2022/07/03 10:38:13;;;;;;;1.60;0.40;;;27.00;25.60;;;;;;5022968;28;20053;-85
2022/07/03 10:46:50;;;;;;;2.45;0.60;;;29.30;1.00;;;;;;5009404;28;20149;-86
2022/07/03 10:49:16;;;;;;;2.55;0.50;;;30.20;1.00;;;;;;5037331;28;20123;-86
2022/07/03 10:51:45;;;;;;;1.95;0.57;;;30.20;1.00;;;;;;5010405;28;20579;-86
2022/07/03 10:54:21;;;;;;;2.00;0.80;;;30.40;1.00;;;;;;5028780;28;20044;-85
2022/07/03 10:56:59;;;;;;;2.17;0.50;;;31.20;1.00;;;;;;5054435;28;20044;-85
2022/07/03 10:59:42;;;;;;;3.25;0.70;;;31.80;1.00;;;;;;5041314;28;20477;-85
2022/07/03 11:02:34;;;;;;;1.67;0.60;;;31.80;15.30;;;;;;5042417;28;20465;-85
2022/07/03 11:05:00;;;;;;;1.77;0.50;;;30.60;65.60;;;;;;5075546;28;20473;-86
2022/07/03 11:07:34;;;;;;;1.50;0.57;;;28.70;34.50;;;;;;5057113;28;20059;-86
2022/07/03 11:10:06;;;;;;;1.25;0.50;;;28.00;19.90;;;;;;5026253;28;20036;-88
2022/07/03 11:12:56;;;;;;;2.05;0.57;;;29.10;19.00;;;;;;5056031;28;20044;-86
2022/07/03 11:15:29;;;;;;;0.95;0.40;;;30.20;37.00;;;;;;5049128;28;20045;-86
2022/07/03 11:18:23;;;;;;;3.08;0.50;;;30.10;36.30;;;;;;5033080;28;20503;-87
2022/07/03 11:20:49;;;;;;;1.05;0.30;;;30.90;67.10;;;;;;5024541;28;20385;-86
2022/07/03 11:23:27;;;;;;;2.80;0.70;;;31.20;76.30;;;;;;5037589;28;20050;-87
2022/07/03 11:25:55;;;;;;;2.83;0.93;;;30.00;87.40;;;;;;5040238;28;20044;-86
2022/07/03 11:28:32;;;;;;;1.15;0.50;;;30.70;1.00;;;;;;5054032;28;20040;-85
2022/07/03 11:31:16;;;;;;;1.33;0.63;;;31.50;20.30;;;;;;5056746;28;20045;-86
2022/07/03 11:34:06;;;;;;;1.05;0.43;;;32.60;60.80;;;;;;5044590;28;20048;-88
2022/07/03 11:37:09;;;;;;;0.90;0.32;;;33.40;34.60;;;;;;5005953;28;20048;-90
2022/07/03 11:39:35;;;;;;;1.17;0.40;;;33.80;43.70;;;;;;5023320;28;20068;-88
2022/07/03 11:42:01;;;;;;;0.70;0.40;;;33.90;71.70;;;;;;5029897;28;20469;-87
2022/07/03 11:44:27;;;;;;;1.55;1.05;;;34.20;74.20;;;;;;5039884;28;20036;-86
2022/07/03 11:46:53;;;;;;;2.72;0.50;;;34.40;93.00;;;;;;5033382;28;20059;-87
2022/07/03 11:49:24;;;;;;;0.73;0.50;;;33.20;71.20;;;;;;5022850;28;20036;-88
2022/07/03 11:51:58;;;;;;;2.50;0.93;;;32.30;48.30;;;;;;5037116;28;20064;-87
2022/07/03 11:54:24;;;;;;;1.33;0.55;;;31.70;49.30;;;;;;5020810;28;20072;-86
2022/07/03 11:56:50;;;;;;;4.05;0.70;;;30.50;54.20;;;;;;5018503;28;20041;-86
2022/07/03 11:59:17;;;;;;;1.85;0.85;;;29.00;35.80;;;;;;5013718;28;21030;-89
2022/07/03 12:01:43;;;;;;;1.52;0.65;;;27.90;1.00;;;;;;5006826;28;20045;-86
2022/07/03 12:04:16;;;;;;;3.45;0.98;;;27.30;1.00;;;;;;5008667;28;20033;-88
2022/07/03 12:06:51;;;;;;;2.35;0.70;;;27.40;18.50;;;;;;5026809;28;20637;-86
2022/07/03 12:09:28;;;;;;;7.57;1.10;;;27.90;1.00;;;;;;5010431;28;20051;-89
2022/07/03 12:12:06;;;;;;;4.43;0.90;;;28.80;1.00;;;;;;5040357;28;20096;-88
2022/07/03 12:14:45;;;;;;;4.35;1.35;;;28.20;1.00;;;;;;5024873;28;20060;-85
2022/07/03 12:17:24;;;;;;;2.75;1.00;;;28.20;1.00;;;;;;5023401;28;20033;-87
2022/07/03 12:19:54;;;;;;;3.15;1.00;;;28.00;1.00;;;;;;5019173;28;20051;-85
2022/07/03 12:22:31;;;;;;;3.05;0.80;;;27.90;1.00;;;;;;5003161;28;20040;-89
2022/07/03 12:25:08;;;;;;;5.47;0.93;;;27.50;1.00;;;;;;5019149;28;20029;-86
2022/07/03 12:27:46;;;;;;;4.90;0.90;;;26.90;1.00;;;;;;5018747;28;20037;-89
2022/07/03 12:30:25;;;;;;;3.20;1.02;;;27.20;1.00;;;;;;5018909;28;20072;-87
2022/07/03 12:32:52;;;;;;;4.38;0.95;;;28.20;1.00;;;;;;5034940;28;20359;-84
2022/07/03 12:35:24;;;;;;;3.33;1.10;;;27.70;1.00;;;;;;5027350;28;20490;-88
2022/07/03 12:37:50;;;;;;;4.50;0.63;;;27.00;1.00;;;;;;4997606;28;20374;-83
2022/07/03 12:40:16;;;;;;;3.55;1.08;;;26.60;1.00;;;;;;5042856;28;20048;-84
2022/07/03 12:42:47;;;;;;;1.92;0.73;;;27.40;1.00;;;;;;5028820;28;20694;-84
2022/07/03 12:45:21;;;;;;;2.22;0.77;;;27.80;1.00;;;;;;5019094;28;20135;-85
2022/07/03 12:48:01;;;;;;;4.13;0.80;;;27.30;1.00;;;;;;5008959;28;20048;-84
2022/07/03 12:50:52;;;;;;;3.22;0.90;;;26.60;1.00;;;;;;5019048;28;20044;-84
2022/07/03 12:53:32;;;;;;;2.40;0.73;;;26.00;1.00;;;;;;5029181;28;20079;-84
2022/07/03 12:56:05;;;;;;;1.52;0.70;;;25.60;1.00;;;;;;5041523;28;20465;-84
2022/07/03 13:01:41;;;;;;;4.95;0.82;;;25.40;1.00;;;;;;5033556;28;20537;-84
2022/07/03 13:04:08;;;;;;;2.35;0.80;;;25.70;1.00;;;;;;5026399;28;20080;-86
2022/07/03 13:06:34;;;;;;;3.15;0.77;;;26.30;1.00;;;;;;5055651;28;20091;-84
2022/07/03 13:09:02;;;;;;;3.13;1.00;;;26.50;1.00;;;;;;5026734;28;20393;-84
2022/07/03 13:11:47;;;;;;;2.53;0.70;;;26.70;1.00;;;;;;5055563;28;20040;-83
2022/07/03 13:14:14;;;;;;;3.08;0.68;;;26.50;1.00;;;;;;5039208;28;20076;-84
2022/07/03 13:16:41;;;;;;;3.60;0.68;;;26.40;1.00;;;;;;5018360;28;20079;-84
2022/07/03 13:19:08;;;;;;;2.58;0.50;;;26.60;1.00;;;;;;5047828;28;20040;-86
2022/07/03 13:21:35;;;;;;;1.70;0.75;;;28.10;1.00;;;;;;5056399;28;20037;-84
2022/07/03 13:24:01;;;;;;;3.17;0.70;;;30.10;1.00;;;;;;5055270;28;20033;-84
2022/07/03 13:26:26;;;;;;;2.22;0.60;;;32.10;1.00;;;;;;5057516;28;20041;-84
2022/07/03 13:28:52;;;;;;;3.00;0.70;;;33.90;1.00;;;;;;5036231;28;20111;-84
2022/07/03 13:31:18;;;;;;;2.03;0.57;;;34.80;1.00;;;;;;5036748;28;20044;-84
2022/07/03 13:33:43;;;;;;;1.83;0.60;;;33.40;1.00;;;;;;5039517;28;20470;-84